createdAt,value
2019-05-05T00:00:35.830Z,71.50
2019-05-05T00:03:15.792Z,71.50
2019-05-05T00:05:50.143Z,71.30
2019-05-05T00:08:19.664Z,71.70
2019-05-05T00:11:06.506Z,71.90
2019-05-05T00:13:40.065Z,71.90
2019-05-05T00:16:11.373Z,72.10
2019-05-05T00:18:40.884Z,72.40
2019-05-05T00:21:10.875Z,72.10
2019-05-05T00:23:41.276Z,71.90
2019-05-05T00:26:11.686Z,71.90
2019-05-05T00:28:41.109Z,72.20
2019-05-05T00:31:12.090Z,72.50
2019-05-05T00:33:41.557Z,72.90
2019-05-05T00:36:14.345Z,73.00
2019-05-05T00:38:44.456Z,73.40
2019-05-05T00:41:15.144Z,73.60
2019-05-05T00:43:45.214Z,73.90
2019-05-05T00:46:24.554Z,73.50
2019-05-05T00:48:55.060Z,73.40
2019-05-05T00:51:24.583Z,73.50
2019-05-05T00:53:55.453Z,73.60
2019-05-05T00:56:25.636Z,73.60
2019-05-05T00:58:57.641Z,73.40
2019-05-05T01:01:31.456Z,73.70
2019-05-05T01:04:02.250Z,74.10
2019-05-05T01:06:34.543Z,74.80
2019-05-05T01:09:07.956Z,74.80
2019-05-05T01:11:44.531Z,74.70
2019-05-05T01:14:14.470Z,75.00
2019-05-05T01:16:46.969Z,74.80
2019-05-05T01:19:18.433Z,74.50
2019-05-05T01:21:47.983Z,74.60
2019-05-05T01:24:17.668Z,75.30
2019-05-05T01:26:47.114Z,75.80
2019-05-05T01:29:16.575Z,75.70
2019-05-05T01:31:48.057Z,75.70
2019-05-05T01:34:24.375Z,75.30
2019-05-05T01:36:55.489Z,75.70
2019-05-05T01:39:28.207Z,75.50
2019-05-05T01:41:59.427Z,75.60
2019-05-05T01:44:28.992Z,75.90
2019-05-05T01:46:59.722Z,76.90
2019-05-05T01:49:29.216Z,77.00
2019-05-05T01:51:58.667Z,77.10
2019-05-05T01:54:29.629Z,76.70
2019-05-05T01:56:59.218Z,76.40
2019-05-05T01:59:31.201Z,75.90
2019-05-05T02:02:00.784Z,76.10
2019-05-05T02:04:30.221Z,75.90
2019-05-05T02:06:59.769Z,75.20
2019-05-05T02:09:29.261Z,75.00
2019-05-05T02:11:58.665Z,75.10
2019-05-05T02:14:28.225Z,75.70
2019-05-05T02:16:57.666Z,76.50
2019-05-05T02:19:29.734Z,76.50
2019-05-05T02:22:00.775Z,77.90
2019-05-05T02:24:31.473Z,78.90
2019-05-05T02:27:00.859Z,79.30
2019-05-05T02:29:39.372Z,80.00
2019-05-05T02:32:26.309Z,80.20
2019-05-05T02:35:06.198Z,80.10
2019-05-05T02:37:35.726Z,80.30
2019-05-05T02:43:57.395Z,80.10
2019-05-05T02:50:15.643Z,79.90
2019-05-05T02:52:47.597Z,80.20
2019-05-05T02:55:18.770Z,80.10
2019-05-05T02:57:48.303Z,80.40
2019-05-05T03:00:24.018Z,81.10
2019-05-05T03:02:56.469Z,81.50
2019-05-05T03:05:26.188Z,82.00
2019-05-05T03:07:56.878Z,82.20
2019-05-05T03:10:28.056Z,82.40
2019-05-05T03:13:00.626Z,82.20
2019-05-05T03:15:54.790Z,81.90
2019-05-05T03:18:24.929Z,82.20
2019-05-05T03:21:02.404Z,82.50
2019-05-05T03:23:26.063Z,82.60
2019-05-05T03:25:55.814Z,82.60
2019-05-05T03:28:26.916Z,82.60
2019-05-05T03:30:56.635Z,82.30
2019-05-05T03:33:26.341Z,82.30
2019-05-05T03:35:56.307Z,82.20
2019-05-05T03:38:26.930Z,81.90
2019-05-05T03:40:59.752Z,81.40
2019-05-05T03:43:40.582Z,81.30
2019-05-05T03:46:10.462Z,81.00
2019-05-05T03:48:40.190Z,81.10
2019-05-05T03:51:18.841Z,81.20
2019-05-05T03:53:41.851Z,81.20
2019-05-05T03:56:17.125Z,80.80
2019-05-05T03:58:46.737Z,80.60
2019-05-05T04:01:34.751Z,80.40
2019-05-05T04:04:24.598Z,80.00
2019-05-05T04:06:55.983Z,79.80
2019-05-05T04:09:26.947Z,80.20
2019-05-05T04:11:56.598Z,80.40
2019-05-05T04:14:27.628Z,80.10
2019-05-05T04:17:03.447Z,79.40
2019-05-05T04:19:50.647Z,79.40
2019-05-05T04:22:20.218Z,80.00
2019-05-05T04:24:49.641Z,80.00
2019-05-05T04:27:19.075Z,80.00
2019-05-05T04:29:50.641Z,80.00
2019-05-05T04:32:20.070Z,80.60
2019-05-05T04:34:49.590Z,80.40
2019-05-05T04:37:19.803Z,80.00
2019-05-05T04:39:49.257Z,80.40
2019-05-05T04:42:24.675Z,81.20
2019-05-05T04:44:56.261Z,81.20
2019-05-05T04:47:44.192Z,81.40
2019-05-05T04:50:18.782Z,81.10
2019-05-05T04:52:49.583Z,80.70
2019-05-05T04:55:19.056Z,80.60
2019-05-05T04:57:50.917Z,80.10
2019-05-05T05:00:20.293Z,79.80
2019-05-05T05:03:06.192Z,79.40
2019-05-05T05:05:53.742Z,79.00
2019-05-05T05:08:24.746Z,79.10
2019-05-05T05:10:54.409Z,78.80
2019-05-05T05:13:25.462Z,79.00
2019-05-05T05:15:54.910Z,78.80
2019-05-05T05:18:25.998Z,78.40
2019-05-05T05:20:57.422Z,79.00
2019-05-05T05:23:29.542Z,79.00
2019-05-05T05:25:57.937Z,78.90
2019-05-05T05:28:29.328Z,78.50
2019-05-05T05:31:03.885Z,77.90
2019-05-05T05:33:34.419Z,78.10
2019-05-05T05:36:04.219Z,77.90
2019-05-05T05:38:35.365Z,77.10
2019-05-05T05:41:13.661Z,76.70
2019-05-05T05:43:47.812Z,76.70
2019-05-05T05:46:49.286Z,76.40
2019-05-05T05:52:43.624Z,76.90
2019-05-05T05:55:27.856Z,77.70
2019-05-05T05:57:57.278Z,77.40
2019-05-05T06:00:27.682Z,79.10
2019-05-05T06:02:57.155Z,79.70
2019-05-05T06:05:26.632Z,80.50
2019-05-05T06:07:57.058Z,79.80
2019-05-05T06:10:27.658Z,79.90
2019-05-05T06:12:57.045Z,79.30
2019-05-05T06:15:26.604Z,78.90
2019-05-05T06:17:56.046Z,79.50
2019-05-05T06:20:25.910Z,79.00
2019-05-05T06:22:57.119Z,79.10
2019-05-05T06:25:26.952Z,79.00
2019-05-05T06:27:56.308Z,78.80
2019-05-05T06:30:26.728Z,78.70
2019-05-05T06:32:56.988Z,78.40
2019-05-05T06:35:26.474Z,78.40
2019-05-05T06:37:55.835Z,78.10
2019-05-05T06:40:27.140Z,78.30
2019-05-05T06:42:58.484Z,78.00
2019-05-05T06:45:35.530Z,78.50
2019-05-05T06:48:06.031Z,79.00
2019-05-05T06:50:36.737Z,78.00
2019-05-05T06:53:09.767Z,76.70
2019-05-05T06:55:38.428Z,75.80
2019-05-05T06:58:09.000Z,75.00
2019-05-05T07:00:39.468Z,75.50
2019-05-05T07:03:10.426Z,76.00
2019-05-05T07:05:39.912Z,76.00
2019-05-05T07:08:09.348Z,77.10
2019-05-05T07:10:38.815Z,77.30
2019-05-05T07:13:08.237Z,75.90
2019-05-05T07:15:38.621Z,75.20
2019-05-05T07:18:08.604Z,75.10
2019-05-05T07:20:40.061Z,74.50
2019-05-05T07:23:09.527Z,74.10
2019-05-05T07:25:42.754Z,74.10
2019-05-05T07:28:10.117Z,73.30
2019-05-05T07:30:39.565Z,73.30
2019-05-05T07:33:09.129Z,72.40
2019-05-05T07:35:58.631Z,71.30
2019-05-05T07:38:24.436Z,71.40
2019-05-05T07:40:54.486Z,70.20
2019-05-05T07:43:25.061Z,69.20
2019-05-05T07:45:54.927Z,68.80
2019-05-05T07:48:28.589Z,68.50
2019-05-05T07:51:39.861Z,68.80
2019-05-05T07:53:30.262Z,68.50
2019-05-05T07:56:00.589Z,68.40
2019-05-05T07:58:34.301Z,67.60
2019-05-05T08:01:04.620Z,65.10
2019-05-05T08:03:34.186Z,64.90
2019-05-05T08:06:04.022Z,65.40
2019-05-05T08:08:33.597Z,64.00
2019-05-05T08:11:04.826Z,63.00
2019-05-05T08:13:35.472Z,63.60
2019-05-05T08:16:09.663Z,64.30
2019-05-05T08:18:40.876Z,63.80
2019-05-05T08:21:10.873Z,65.00
2019-05-05T08:23:54.098Z,65.20
2019-05-05T08:26:33.717Z,65.20
2019-05-05T08:29:07.896Z,64.30
2019-05-05T08:31:47.833Z,64.30
2019-05-05T08:34:17.418Z,63.20
2019-05-05T08:36:46.981Z,63.00
2019-05-05T08:39:16.482Z,60.80
2019-05-05T08:41:47.729Z,60.80
2019-05-05T08:44:18.129Z,60.10
2019-05-05T08:46:51.108Z,60.40
2019-05-05T08:49:21.027Z,60.70
2019-05-05T08:51:50.743Z,59.10
2019-05-05T08:54:20.340Z,58.60
2019-05-05T09:04:05.948Z,57.20
2019-05-05T09:06:43.793Z,57.80
2019-05-05T09:09:24.054Z,58.60
2019-05-05T09:11:54.268Z,61.10
2019-05-05T09:14:24.745Z,64.90
2019-05-05T09:16:54.372Z,70.60
2019-05-05T09:19:25.699Z,77.10
2019-05-05T09:21:55.168Z,79.80
2019-05-05T09:24:34.144Z,83.30
2019-05-05T09:27:09.748Z,84.00
2019-05-05T09:29:43.819Z,84.80
2019-05-05T09:32:15.042Z,85.40
2019-05-05T09:34:44.656Z,85.30
2019-05-05T09:37:15.242Z,85.50
2019-05-05T09:39:45.585Z,85.20
2019-05-05T09:42:16.595Z,82.70
2019-05-05T09:44:46.063Z,82.60
2019-05-05T09:47:16.415Z,82.90
2019-05-05T09:49:45.859Z,80.00
2019-05-05T09:52:16.334Z,79.10
2019-05-05T09:54:46.858Z,76.90
2019-05-05T09:57:23.529Z,75.10
2019-05-05T09:59:50.911Z,77.10
2019-05-05T10:02:20.652Z,74.60
2019-05-05T10:04:51.730Z,74.60
2019-05-05T10:07:24.072Z,74.00
2019-05-05T10:09:54.262Z,71.50
2019-05-05T10:12:25.876Z,68.80
2019-05-05T10:14:56.224Z,71.00
2019-05-05T10:17:28.730Z,68.20
2019-05-05T10:19:58.193Z,70.00
2019-05-05T10:22:27.652Z,70.50
2019-05-05T10:25:14.800Z,67.80
2019-05-05T10:27:47.584Z,68.90
2019-05-05T10:30:16.932Z,69.80
2019-05-05T10:32:46.495Z,68.10
2019-05-05T10:35:17.151Z,69.60
2019-05-05T10:37:48.519Z,64.40
2019-05-05T10:40:20.366Z,63.60
2019-05-05T10:42:55.732Z,64.70
2019-05-05T10:45:25.356Z,62.00
2019-05-05T10:47:56.505Z,60.80
2019-05-05T10:50:27.491Z,59.80
2019-05-05T10:52:59.506Z,59.30
2019-05-05T10:55:30.525Z,58.40
2019-05-05T10:58:03.049Z,58.90
2019-05-05T11:00:44.433Z,60.80
2019-05-05T11:03:15.311Z,63.30
2019-05-05T11:05:46.963Z,66.90
2019-05-05T11:08:16.508Z,69.50
2019-05-05T11:10:47.475Z,72.20
2019-05-05T11:13:17.081Z,73.00
2019-05-05T11:15:46.647Z,72.60
2019-05-05T11:18:16.170Z,73.50
2019-05-05T11:20:47.508Z,73.00
2019-05-05T11:23:17.056Z,74.30
2019-05-05T11:25:46.629Z,72.70
2019-05-05T11:28:16.103Z,73.50
2019-05-05T11:30:47.477Z,70.40
2019-05-05T11:33:34.721Z,69.80
2019-05-05T11:36:21.148Z,71.20
2019-05-05T11:38:53.669Z,66.50
2019-05-05T11:41:24.239Z,64.10
2019-05-05T11:43:53.859Z,62.40
2019-05-05T11:46:24.750Z,60.30
2019-05-05T11:48:56.830Z,61.10
2019-05-05T11:51:28.071Z,56.10
2019-05-05T11:53:58.785Z,57.30
2019-05-05T11:56:28.240Z,53.70
2019-05-05T11:58:57.680Z,53.00
2019-05-05T12:01:27.639Z,51.50
2019-05-05T12:03:58.050Z,50.30
2019-05-05T12:06:29.985Z,48.20
2019-05-05T12:09:01.053Z,47.90
2019-05-05T12:11:37.805Z,44.30
2019-05-05T12:14:09.996Z,44.50
2019-05-05T12:20:04.583Z,48.10
2019-05-05T12:26:04.748Z,52.30
2019-05-05T12:28:35.946Z,53.00
2019-05-05T12:31:20.852Z,54.20
2019-05-05T12:33:54.753Z,54.90
2019-05-05T12:36:24.167Z,55.60
2019-05-05T12:38:55.875Z,54.80
2019-05-05T12:41:29.980Z,54.70
2019-05-05T12:44:03.385Z,55.10
2019-05-05T12:46:34.812Z,52.20
2019-05-05T12:49:08.647Z,49.70
2019-05-05T12:51:39.066Z,48.60
2019-05-05T12:54:08.720Z,46.60
2019-05-05T12:56:38.227Z,46.20
2019-05-05T12:59:11.736Z,46.40
2019-05-05T13:01:44.669Z,45.90
2019-05-05T13:04:14.374Z,47.30
2019-05-05T13:06:45.029Z,47.00
2019-05-05T13:09:17.428Z,46.60
2019-05-05T13:11:48.008Z,46.20
2019-05-05T13:14:17.616Z,46.60
2019-05-05T13:16:53.006Z,46.30
2019-05-05T13:19:25.930Z,45.90
2019-05-05T13:22:03.521Z,45.60
2019-05-05T13:24:34.402Z,44.10
2019-05-05T13:27:19.523Z,43.50
2019-05-05T13:29:49.208Z,42.90
2019-05-05T13:32:20.959Z,43.90
2019-05-05T13:34:50.407Z,43.40
2019-05-05T13:37:20.912Z,45.20
2019-05-05T13:39:50.772Z,45.00
2019-05-05T13:42:20.183Z,46.50
2019-05-05T13:44:57.277Z,47.30
2019-05-05T13:47:26.712Z,47.70
2019-05-05T13:50:00.504Z,46.10
2019-05-05T13:52:33.621Z,45.10
2019-05-05T13:55:03.381Z,45.10
2019-05-05T13:57:33.885Z,46.60
2019-05-05T14:00:10.632Z,46.90
2019-05-05T14:02:40.713Z,46.60
2019-05-05T14:05:13.454Z,47.50
2019-05-05T14:07:43.619Z,50.60
2019-05-05T14:10:15.691Z,51.90
2019-05-05T14:12:46.155Z,53.20
2019-05-05T14:15:17.153Z,53.50
2019-05-05T14:17:46.750Z,53.80
2019-05-05T14:20:16.413Z,53.00
2019-05-05T14:22:47.911Z,51.90
2019-05-05T14:25:21.697Z,48.30
2019-05-05T14:27:54.132Z,48.10
2019-05-05T14:30:26.947Z,48.00
2019-05-05T14:32:57.155Z,46.80
2019-05-05T14:35:45.516Z,44.70
2019-05-05T14:38:23.618Z,40.00
2019-05-05T14:40:53.776Z,39.70
2019-05-05T14:43:23.965Z,39.80
2019-05-05T14:45:55.086Z,39.20
2019-05-05T14:48:24.644Z,39.20
2019-05-05T14:50:54.343Z,38.80
2019-05-05T14:53:24.917Z,41.60
2019-05-05T14:55:56.601Z,45.30
2019-05-05T14:58:26.061Z,46.90
2019-05-05T15:00:55.573Z,47.70
2019-05-05T15:03:27.079Z,48.40
2019-05-05T15:06:00.129Z,47.90
2019-05-05T15:08:38.111Z,47.00
2019-05-05T15:11:14.085Z,47.40
2019-05-05T15:13:43.731Z,48.50
2019-05-05T15:16:13.980Z,49.00
2019-05-05T15:18:45.683Z,48.70
2019-05-05T15:21:15.194Z,47.80
2019-05-05T15:23:47.796Z,47.10
2019-05-05T15:26:23.720Z,46.90
2019-05-05T15:29:01.237Z,46.70
2019-05-05T15:31:29.831Z,47.10
2019-05-05T15:33:59.269Z,47.00
2019-05-05T15:36:29.816Z,47.40
2019-05-05T15:39:00.278Z,47.90
2019-05-05T15:41:29.784Z,46.70
2019-05-05T15:44:03.654Z,46.80
2019-05-05T15:46:33.702Z,45.20
2019-05-05T15:49:04.384Z,44.80
2019-05-05T15:51:34.384Z,45.30
2019-05-05T15:54:04.026Z,45.20
2019-05-05T15:56:34.014Z,46.10
2019-05-05T15:59:03.716Z,47.20
2019-05-05T16:01:34.721Z,48.00
2019-05-05T16:04:04.244Z,48.40
2019-05-05T16:06:34.456Z,47.60
2019-05-05T16:09:06.043Z,47.90
2019-05-05T16:11:37.104Z,47.60
2019-05-05T16:14:08.884Z,47.20
2019-05-05T16:16:40.016Z,47.70
2019-05-05T16:19:17.034Z,46.60
2019-05-05T16:21:49.401Z,47.60
2019-05-05T16:24:24.703Z,48.40
2019-05-05T16:26:55.844Z,49.30
2019-05-05T16:29:27.237Z,49.20
2019-05-05T16:31:57.950Z,49.30
2019-05-05T16:34:27.432Z,49.20
2019-05-05T16:37:00.058Z,48.70
2019-05-05T16:39:29.529Z,47.60
2019-05-05T16:42:01.697Z,47.20
2019-05-05T16:44:36.416Z,47.40
2019-05-05T16:47:07.406Z,46.90
2019-05-05T16:49:36.877Z,43.80
2019-05-05T16:52:08.017Z,44.60
2019-05-05T16:54:40.049Z,46.40
2019-05-05T16:57:09.592Z,48.60
2019-05-05T16:59:40.408Z,50.50
2019-05-05T17:02:11.077Z,51.40
2019-05-05T17:04:43.384Z,51.10
2019-05-05T17:07:14.246Z,50.80
2019-05-05T17:09:43.793Z,50.40
2019-05-05T17:12:14.863Z,49.20
2019-05-05T17:14:50.033Z,49.80
2019-05-05T17:17:26.057Z,50.50
2019-05-05T17:20:07.821Z,51.50
2019-05-05T17:22:38.950Z,52.90
2019-05-05T17:25:11.103Z,53.60
2019-05-05T17:27:48.592Z,53.20
2019-05-05T17:30:14.489Z,53.20
2019-05-05T17:32:44.017Z,53.30
2019-05-05T17:35:14.603Z,52.20
2019-05-05T17:37:44.296Z,51.70
2019-05-05T17:40:15.533Z,51.00
2019-05-05T17:42:57.953Z,50.60
2019-05-05T17:45:29.475Z,49.90
2019-05-05T17:48:04.510Z,50.10
2019-05-05T17:50:55.217Z,50.30
2019-05-05T17:53:30.293Z,50.30
2019-05-05T17:56:03.936Z,50.80
2019-05-05T17:58:34.071Z,51.10
2019-05-05T18:01:05.062Z,52.00
2019-05-05T18:03:34.715Z,52.20
2019-05-05T18:06:08.653Z,52.70
2019-05-05T18:08:45.989Z,53.10
2019-05-05T18:11:25.299Z,53.60
2019-05-05T18:13:59.049Z,53.70
2019-05-05T18:16:29.926Z,54.00
2019-05-05T18:18:59.497Z,54.20
2019-05-05T18:21:32.274Z,55.10
2019-05-05T18:24:03.309Z,54.70
2019-05-05T18:26:34.180Z,52.50
2019-05-05T18:29:03.948Z,53.20
2019-05-05T18:31:35.924Z,53.60
2019-05-05T18:34:05.315Z,54.00
2019-05-05T18:36:34.839Z,54.20
2019-05-05T18:39:07.857Z,54.60
2019-05-05T18:41:45.679Z,55.20
2019-05-05T18:44:19.057Z,55.50
2019-05-05T18:47:14.891Z,55.80
2019-05-05T18:49:43.188Z,56.60
2019-05-05T18:52:30.999Z,57.20
2019-05-05T18:55:04.450Z,57.30
2019-05-05T18:57:34.250Z,57.20
2019-05-05T19:00:09.476Z,56.80
2019-05-05T19:02:57.632Z,56.80
2019-05-05T19:05:37.609Z,56.80
2019-05-05T19:08:10.566Z,57.10
2019-05-05T19:10:40.088Z,57.30
2019-05-05T19:13:15.163Z,56.90
2019-05-05T19:15:45.477Z,57.10
2019-05-05T19:18:14.938Z,56.70
2019-05-05T19:20:48.972Z,57.30
2019-05-05T19:23:19.048Z,57.60
2019-05-05T19:25:49.132Z,58.00
2019-05-05T19:28:19.597Z,57.70
2019-05-05T19:30:50.021Z,58.10
2019-05-05T19:33:19.505Z,57.90
2019-05-05T19:35:50.431Z,58.30
2019-05-05T19:38:19.896Z,58.80
2019-05-05T19:40:49.420Z,59.10
2019-05-05T19:43:18.828Z,59.60
2019-05-05T19:45:48.253Z,59.90
2019-05-05T19:48:19.202Z,60.20
2019-05-05T19:50:51.618Z,60.30
2019-05-05T19:53:24.604Z,60.60
2019-05-05T19:55:55.912Z,60.70
2019-05-05T19:58:27.082Z,60.90
2019-05-05T20:00:58.183Z,60.80
2019-05-05T20:03:30.073Z,61.20
2019-05-05T20:06:01.073Z,61.20
2019-05-05T20:08:41.686Z,60.50
2019-05-05T20:11:08.759Z,60.20
2019-05-05T20:13:44.549Z,60.70
2019-05-05T20:16:21.291Z,60.90
2019-05-05T20:18:50.821Z,61.40
2019-05-05T20:21:23.685Z,61.50
2019-05-05T20:23:53.729Z,61.30
2019-05-05T20:26:29.942Z,61.90
2019-05-05T20:29:11.598Z,62.00
2019-05-05T20:31:32.028Z,62.50
2019-05-05T20:34:03.965Z,62.80
2019-05-05T20:36:36.033Z,63.00
2019-05-05T20:39:08.468Z,63.00
2019-05-05T20:41:37.656Z,63.30
2019-05-05T20:44:09.412Z,63.40
2019-05-05T20:46:38.768Z,63.00
2019-05-05T20:49:09.153Z,63.60
2019-05-05T20:51:38.585Z,63.80
2019-05-05T20:54:14.190Z,63.80
2019-05-05T20:56:44.457Z,64.20
2019-05-05T20:59:26.796Z,63.50
2019-05-05T21:01:45.051Z,64.10
2019-05-05T21:04:14.473Z,64.70
2019-05-05T21:06:43.932Z,64.90
2019-05-05T21:09:15.953Z,65.00
2019-05-05T21:11:45.407Z,65.20
2019-05-05T21:14:14.952Z,64.90
2019-05-05T21:16:45.350Z,65.00
2019-05-05T21:19:14.811Z,65.10
2019-05-05T21:21:45.893Z,65.00
2019-05-05T21:24:15.330Z,65.70
2019-05-05T21:26:59.401Z,66.20
2019-05-05T21:29:39.565Z,66.30
2019-05-05T21:31:59.889Z,66.90
2019-05-05T21:34:29.229Z,66.70
2019-05-05T21:36:59.867Z,66.70
2019-05-05T21:39:30.284Z,66.50
2019-05-05T21:42:01.394Z,66.30
2019-05-05T21:44:34.398Z,65.70
2019-05-05T21:47:03.101Z,65.50
2019-05-05T21:49:38.612Z,65.20
2019-05-05T21:52:09.671Z,65.20
2019-05-05T21:54:58.335Z,66.10
2019-05-05T21:57:31.863Z,66.10
2019-05-05T22:00:01.399Z,66.20
2019-05-05T22:02:34.397Z,66.00
2019-05-05T22:05:04.792Z,66.50
2019-05-05T22:07:35.813Z,65.90
2019-05-05T22:13:20.952Z,67.30
2019-05-05T22:15:58.105Z,67.30
2019-05-05T22:18:28.151Z,67.10
2019-05-05T22:21:04.319Z,66.90
2019-05-05T22:23:34.387Z,66.80
2019-05-05T22:26:05.980Z,66.30
2019-05-05T22:28:36.449Z,66.30
2019-05-05T22:31:07.558Z,66.10
2019-05-05T22:33:36.967Z,66.40
2019-05-05T22:36:07.097Z,66.30
2019-05-05T22:38:36.701Z,66.30
2019-05-05T22:41:08.248Z,66.40
2019-05-05T22:43:37.708Z,67.30
2019-05-05T22:46:07.156Z,67.00
2019-05-05T22:48:38.227Z,67.70
2019-05-05T22:51:07.655Z,67.70
2019-05-05T22:53:37.080Z,68.20
2019-05-05T22:56:06.465Z,68.80
2019-05-05T22:58:38.314Z,69.20
2019-05-05T23:01:07.935Z,69.80
2019-05-05T23:03:56.533Z,69.70
2019-05-05T23:06:33.298Z,70.20
2019-05-05T23:09:04.104Z,70.30
2019-05-05T23:11:35.155Z,70.20
2019-05-05T23:14:24.745Z,70.40
2019-05-05T23:17:04.783Z,71.20
2019-05-05T23:19:53.825Z,70.70
2019-05-05T23:22:44.022Z,70.90
2019-05-05T23:25:17.337Z,71.00
2019-05-05T23:27:48.730Z,70.80
2019-05-05T23:30:20.735Z,71.10
2019-05-05T23:32:51.745Z,71.10
2019-05-05T23:35:21.174Z,71.80
2019-05-05T23:37:55.055Z,72.20
2019-05-05T23:40:25.860Z,72.00
2019-05-05T23:42:55.558Z,72.10
2019-05-05T23:45:27.016Z,71.90
2019-05-05T23:47:56.512Z,71.80
2019-05-05T23:50:25.895Z,71.90
2019-05-05T23:52:55.345Z,71.80
2019-05-05T23:55:26.025Z,72.00
2019-05-05T23:57:55.402Z,72.90
